Search for airport 
image banner adimage banner ad
image banner ad

SVIO - Los Conucos

Located in Anzoategui, Venezuela

ICAO - , IATA -

Data provided by Airmate  

General information

Coordinates: N9°51'0" W65°18'60"
Elevation is feet MSL.
 
Rated:
View ratings: [VIEW]


View others Airports in Anzoategui

Operational data

Open for public use
Current time UTC:
Current local time:
METAR: SVBC 171002Z AUTO 14004KT NCD 23/22 Q1011
TAF: TAF SVBC 170400Z 1706/1806 17004KT 9999 SCT016 TX32/17Z TN24/06Z TEMPO 0406/0410 09005KT 9999 BKN016
View NOTAMs / SUP AIP / TFR affecting this airport [VIEW]
Communications frequencies: [VIEW]

Runways:

RWY identifierQFULength (ft)Width (ft)SurfaceLDA (ft)
1800
3600

Airport contact information

Address: Anzoategui Venezuela

Satellite view of SVIO